»·PEaware :: N1980 KBUR-KFUL

N1980 :: KBUR-KFUL

FLIGHT INFORMATION

Flight Status: Arrived
Operator: Privately registered:
United States
More flights under this callsign
Pilot: Max M. (20768)
Aircraft: Unknown
(DA62)
More flights by this aircraft type
Origin: KBUR Bob Hope-Burbank
United States
Destination: KFUL Fullerton Mun
United States
More flights between these airports :: More routes between these airports
Route: BERRI DARTS CFVPW ADAMM HAMUG
File this flight plan on PilotEdge
Remarks:
Altitude:
(Current/Filed)
3,500ft
Speed:
(Current/Filed)
120kts
Departed: 06-Feb-19 09:02 PM
Arrived: 06-Feb-19 09:23 PM
Distance/Time
Traveled:
27nm/0:21
Distance/Time
To Go:
Arrived

Flight Plot

Page will automatically refresh every two minutes.

Flight plan parsing failed; only flown route is shown


Map Options




Map Legend


Flown Route
Filed Route
Departure Airport
Arrival Airport
Navaid (VOR, NDB)
Fix

Horizontal Profiles

Position Reports

Time Latitude Longitude Heading Altitude Ground
Speed
06-Feb-19 20:32 34.200500 -118.365995 182 738ft 0kts
06-Feb-19 20:33 34.200500 -118.365995 182 738ft 0kts
06-Feb-19 20:34 34.200500 -118.365995 182 738ft 0kts
06-Feb-19 20:35 34.200500 -118.365995 182 738ft 0kts
06-Feb-19 20:37 34.200500 -118.365995 182 738ft 0kts
06-Feb-19 20:38 34.200500 -118.365995 182 738ft 0kts
06-Feb-19 20:39 34.200500 -118.365995 182 738ft 0kts
06-Feb-19 20:40 34.200500 -118.365995 182 738ft 0kts
06-Feb-19 20:41 34.200500 -118.365995 182 738ft 0kts
06-Feb-19 20:42 34.200500 -118.365995 182 738ft 0kts
06-Feb-19 20:43 34.200500 -118.365995 182 738ft 0kts
06-Feb-19 20:44 34.200500 -118.365995 182 738ft 0kts
06-Feb-19 20:45 34.200500 -118.365995 182 738ft 0kts
06-Feb-19 20:46 34.200500 -118.365995 182 738ft 0kts
06-Feb-19 20:47 34.200500 -118.365995 182 738ft 0kts
06-Feb-19 20:48 34.200500 -118.365995 182 738ft 0kts
06-Feb-19 20:49 34.200500 -118.365995 182 738ft 0kts
06-Feb-19 20:50 34.200500 -118.365995 182 738ft 0kts
06-Feb-19 20:51 34.200500 -118.365995 182 738ft 0kts
06-Feb-19 20:52 34.200500 -118.365995 182 738ft 0kts
06-Feb-19 20:53 34.200499 -118.365995 182 738ft 0kts
06-Feb-19 20:54 34.199578 -118.365945 162 738ft 0kts
06-Feb-19 20:55 34.199069 -118.365245 98 738ft 9kts
06-Feb-19 20:55 34.198914 -118.360217 90 738ft 18kts
06-Feb-19 20:57 34.198887 -118.358141 90 738ft 7kts
06-Feb-19 20:58 34.198676 -118.351074 121 738ft 18kts
06-Feb-19 20:58 34.198504 -118.350846 136 738ft 0kts
06-Feb-19 20:59 34.198504 -118.350846 136 738ft 0kts
06-Feb-19 21:00 34.197615 -118.350886 261 738ft 8kts
06-Feb-19 21:02 34.193233 -118.387400 225 1242ft 133kts
06-Feb-19 21:02 34.169446 -118.376806 88 1861ft 144kts
06-Feb-19 21:03 34.184707 -118.335813 62 2503ft 130kts
06-Feb-19 21:04 34.180767 -118.290694 125 2523ft 151kts
06-Feb-19 21:05 34.151901 -118.253888 114 2529ft 155kts
06-Feb-19 21:06 34.135772 -118.205401 110 2592ft 152kts
06-Feb-19 21:07 34.121262 -118.159867 110 3087ft 133kts
06-Feb-19 21:08 34.107220 -118.115808 110 3230ft 150kts
06-Feb-19 21:09 34.091790 -118.067485 110 3227ft 156kts
06-Feb-19 21:10 34.076491 -118.018106 109 3227ft 157kts
06-Feb-19 21:11 34.061832 -117.968257 109 3227ft 157kts
06-Feb-19 21:12 34.047135 -117.918340 109 3227ft 157kts
06-Feb-19 21:13 34.032116 -117.867405 109 2948ft 165kts
06-Feb-19 21:14 34.011018 -117.823839 162 2922ft 151kts
06-Feb-19 21:15 33.967361 -117.827168 189 2442ft 168kts
06-Feb-19 21:16 33.922650 -117.836523 189 2231ft 154kts
06-Feb-19 21:17 33.894780 -117.865292 251 1794ft 118kts
06-Feb-19 21:18 33.887787 -117.897765 256 1093ft 94kts
06-Feb-19 21:19 33.881703 -117.928341 249 477ft 81kts
06-Feb-19 21:20 33.876459 -117.952055 267 380ft 69kts
06-Feb-19 21:21 33.872861 -117.975573 258 95ft 65kts
06-Feb-19 21:22 33.872652 -117.979627 343 95ft 5kts
06-Feb-19 21:23 33.872738 -117.980594 264 95ft 0kts
06-Feb-19 21:24 33.872928 -117.980819 327 95ft 0kts
06-Feb-19 21:25 33.872939 -117.980827 327 95ft 0kts

Navigation Log

Ident Type
Flight plan parsing failed, navigation log unavailable